createdAt,value
2022-08-22T00:01:35.927Z,101238.94
2022-08-22T00:02:42.423Z,101166.38
2022-08-22T00:02:44.326Z,101216.81
2022-08-22T00:02:54.108Z,101190.13
2022-08-22T00:04:24.324Z,101237.06
2022-08-22T00:07:19.750Z,101241.78
2022-08-22T00:10:20.318Z,101245.09
2022-08-22T00:13:07.861Z,101242.34
2022-08-22T00:15:47.457Z,101247.06
2022-08-22T00:18:38.124Z,101245.78
2022-08-22T00:21:16.769Z,101241.25
2022-08-22T00:23:53.688Z,101239.75
2022-08-22T00:26:43.309Z,101237.97
2022-08-22T00:29:24.406Z,101239.00
2022-08-22T00:32:06.718Z,101236.09
2022-08-22T00:34:44.724Z,101231.91
2022-08-22T00:37:32.383Z,101241.03
2022-08-22T00:40:43.466Z,101246.25
2022-08-22T00:43:09.955Z,101248.09
2022-08-22T00:46:30.192Z,101218.09
2022-08-22T00:49:35.690Z,101253.34
2022-08-22T00:52:28.047Z,101260.00
2022-08-22T00:55:09.624Z,101249.59
2022-08-22T00:58:06.560Z,101253.78
2022-08-22T01:00:56.062Z,101254.25
2022-08-22T01:03:43.845Z,101252.97
2022-08-22T01:07:23.749Z,101252.59
2022-08-22T01:10:58.576Z,101249.13
2022-08-22T01:14:34.827Z,101252.22
2022-08-22T01:17:54.709Z,101259.97
2022-08-22T01:20:39.885Z,101257.63
2022-08-22T01:23:15.407Z,101265.34
2022-08-22T01:26:11.885Z,101265.09
2022-08-22T01:29:00.334Z,101265.72
2022-08-22T01:31:59.919Z,101264.53
2022-08-22T01:34:54.252Z,101264.19
2022-08-22T01:37:33.041Z,101261.19
2022-08-22T01:40:37.619Z,101270.78
2022-08-22T01:44:37.935Z,101262.00
2022-08-22T01:47:25.289Z,101266.16
2022-08-22T01:50:02.567Z,101267.31
2022-08-22T01:52:41.105Z,101249.56
2022-08-22T01:55:34.150Z,101271.19
2022-08-22T01:58:24.619Z,101267.00
2022-08-22T02:01:06.643Z,101263.56
2022-08-22T02:03:58.068Z,101265.75
2022-08-22T02:06:45.867Z,101260.66
2022-08-22T02:09:53.868Z,101265.75
2022-08-22T02:12:37.395Z,101260.94
2022-08-22T02:15:51.219Z,101266.78
2022-08-22T02:18:27.983Z,101265.75
2022-08-22T02:21:11.983Z,101267.44
2022-08-22T02:23:55.953Z,101268.28
2022-08-22T02:26:44.718Z,101263.41
2022-08-22T02:29:18.887Z,101255.44
2022-08-22T02:32:19.327Z,101260.97
2022-08-22T02:35:13.268Z,101259.44
2022-08-22T02:38:38.950Z,101259.69
2022-08-22T02:41:48.704Z,101251.13
2022-08-22T02:44:36.375Z,101255.16
2022-08-22T02:47:10.651Z,101257.16
2022-08-22T02:50:03.268Z,101253.47
2022-08-22T02:53:07.180Z,101243.31
2022-08-22T02:55:52.397Z,101249.53
2022-08-22T02:58:40.861Z,101252.50
2022-08-22T03:01:25.243Z,101253.41
2022-08-22T03:04:12.945Z,101254.97
2022-08-22T03:07:00.035Z,101255.25
2022-08-22T03:09:36.696Z,101256.81
2022-08-22T03:12:34.197Z,101259.13
2022-08-22T03:15:06.802Z,101260.56
2022-08-22T03:17:48.284Z,101263.63
2022-08-22T03:20:42.708Z,101236.22
2022-08-22T03:23:33.361Z,101263.88
2022-08-22T03:26:30.706Z,101259.78
2022-08-22T03:29:09.666Z,101248.28
2022-08-22T03:31:36.663Z,101259.63
2022-08-22T03:34:25.006Z,101259.28
2022-08-22T03:37:17.810Z,101267.44
2022-08-22T03:40:01.145Z,101255.06
2022-08-22T03:42:49.084Z,101262.50
2022-08-22T03:45:59.808Z,101249.22
2022-08-22T03:48:45.584Z,101254.47
2022-08-22T03:51:38.537Z,101262.78
2022-08-22T03:54:20.943Z,101255.25
2022-08-22T03:57:09.133Z,101265.00
2022-08-22T04:00:06.963Z,101256.84
2022-08-22T04:03:21.205Z,101273.88
2022-08-22T04:06:12.642Z,101266.00
2022-08-22T04:09:17.042Z,101265.50
2022-08-22T04:12:14.511Z,101270.50
2022-08-22T04:14:47.520Z,101272.69
2022-08-22T04:17:29.030Z,101277.06
2022-08-22T04:20:13.076Z,101255.19
2022-08-22T04:23:41.045Z,101275.97
2022-08-22T04:26:17.173Z,101277.06
2022-08-22T04:28:58.545Z,101285.47
2022-08-22T04:31:32.526Z,101286.81
2022-08-22T04:34:18.224Z,101291.72
2022-08-22T04:36:55.392Z,101297.81
2022-08-22T04:39:45.556Z,101294.25
2022-08-22T04:42:32.632Z,101304.00
2022-08-22T04:45:13.307Z,101287.97
2022-08-22T04:48:12.966Z,101307.44
2022-08-22T04:50:55.014Z,101300.84
2022-08-22T04:53:38.568Z,101296.91
2022-08-22T04:56:22.348Z,101305.81
2022-08-22T04:58:59.241Z,101296.28
2022-08-22T05:01:37.378Z,101305.47
2022-08-22T05:04:29.969Z,101310.28
2022-08-22T05:07:10.455Z,101310.28
2022-08-22T05:09:40.894Z,101308.34
2022-08-22T05:12:14.465Z,101312.34
2022-08-22T05:14:58.314Z,101323.00
2022-08-22T05:17:29.315Z,101310.59
2022-08-22T05:20:03.072Z,101260.44
2022-08-22T05:22:36.883Z,101316.34
2022-08-22T05:25:11.023Z,101318.28
2022-08-22T05:27:49.296Z,101323.38
2022-08-22T05:30:28.286Z,101334.81
2022-08-22T05:33:15.039Z,101326.63
2022-08-22T05:35:54.544Z,101324.69
2022-08-22T05:38:31.481Z,101329.22
2022-08-22T05:41:10.051Z,101330.41
2022-08-22T05:43:44.004Z,101341.09
2022-08-22T05:46:40.397Z,101314.66
2022-08-22T05:49:30.689Z,101330.53
2022-08-22T05:52:38.672Z,101329.88
2022-08-22T05:55:28.091Z,101333.22
2022-08-22T05:58:39.831Z,101339.63
2022-08-22T06:01:42.320Z,101346.66
2022-08-22T06:04:45.283Z,101343.47
2022-08-22T06:07:33.830Z,101332.84
2022-08-22T06:10:06.751Z,101343.44
2022-08-22T06:12:43.698Z,101347.56
2022-08-22T06:15:29.437Z,101359.97
2022-08-22T06:18:26.454Z,101359.72
2022-08-22T06:21:02.373Z,101358.75
2022-08-22T06:23:47.120Z,101357.78
2022-08-22T06:26:20.371Z,101349.06
2022-08-22T06:28:55.367Z,101347.59
2022-08-22T06:31:31.023Z,101359.28
2022-08-22T06:34:08.127Z,101362.75
2022-08-22T06:36:39.486Z,101356.88
2022-08-22T06:39:24.089Z,101354.59
2022-08-22T06:42:02.333Z,101359.53
2022-08-22T06:44:38.355Z,101360.13
2022-08-22T06:47:14.936Z,101365.97
2022-08-22T06:49:45.675Z,101359.34
2022-08-22T06:52:23.322Z,101350.78
2022-08-22T06:55:00.337Z,101350.44
2022-08-22T06:57:50.495Z,101348.50
2022-08-22T07:00:18.849Z,101358.38
2022-08-22T07:03:07.609Z,101360.25
2022-08-22T07:05:41.543Z,101356.50
2022-08-22T07:08:19.660Z,101363.88
2022-08-22T07:11:13.748Z,101366.78
2022-08-22T07:13:51.569Z,101365.47
2022-08-22T07:16:31.535Z,101358.50
2022-08-22T07:18:58.763Z,101366.03
2022-08-22T07:21:43.603Z,101358.78
2022-08-22T07:24:22.036Z,101359.28
2022-08-22T07:27:28.211Z,101364.84
2022-08-22T07:30:10.201Z,101367.03
2022-08-22T07:32:43.347Z,101365.00
2022-08-22T07:35:19.787Z,101357.03
2022-08-22T07:38:21.393Z,101362.28
2022-08-22T07:41:13.056Z,101364.06
2022-08-22T07:43:51.662Z,101361.19
2022-08-22T07:46:57.989Z,101367.09
2022-08-22T07:49:35.943Z,101367.13
2022-08-22T07:52:09.732Z,101367.47
2022-08-22T07:54:52.839Z,101371.31
2022-08-22T07:57:27.585Z,101370.88
2022-08-22T07:59:58.132Z,101365.56
2022-08-22T08:02:26.539Z,101351.16
2022-08-22T08:04:57.235Z,101369.63
2022-08-22T08:07:29.056Z,101368.94
2022-08-22T08:10:04.992Z,101362.66
2022-08-22T08:12:41.527Z,101377.31
2022-08-22T08:15:17.147Z,101378.59
2022-08-22T08:17:46.087Z,101383.16
2022-08-22T08:20:17.531Z,101382.66
2022-08-22T08:22:46.115Z,101371.47
2022-08-22T08:25:21.528Z,101380.72
2022-08-22T08:28:09.843Z,101375.84
2022-08-22T08:30:52.964Z,101368.34
2022-08-22T08:33:26.679Z,101372.84
2022-08-22T08:36:32.951Z,101368.75
2022-08-22T08:39:28.580Z,101368.81
2022-08-22T08:42:09.306Z,101371.72
2022-08-22T08:44:49.523Z,101359.56
2022-08-22T08:47:16.129Z,101363.69
2022-08-22T08:50:16.512Z,101355.69
2022-08-22T08:56:38.264Z,101354.88
2022-08-22T08:59:26.939Z,101362.69
2022-08-22T09:02:34.822Z,101360.59
2022-08-22T09:05:29.586Z,101363.03
2022-08-22T09:08:21.140Z,101364.28
2022-08-22T09:10:50.906Z,101364.97
2022-08-22T09:13:53.143Z,101369.00
2022-08-22T09:17:30.380Z,101358.75
2022-08-22T09:20:30.899Z,101361.84
2022-08-22T09:23:37.754Z,101360.16
2022-08-22T09:26:08.586Z,101369.00
2022-08-22T09:28:47.614Z,101365.41
2022-08-22T09:31:32.906Z,101366.44
2022-08-22T09:34:25.604Z,101366.47
2022-08-22T09:37:20.417Z,101335.03
2022-08-22T09:43:14.089Z,101369.22
2022-08-22T09:45:58.532Z,101361.41
2022-08-22T09:48:37.918Z,101368.72
2022-08-22T09:51:41.062Z,101366.28
2022-08-22T09:54:35.854Z,101370.81
2022-08-22T09:57:38.775Z,101370.78
2022-08-22T10:00:05.284Z,101378.81
2022-08-22T10:02:43.845Z,101371.31
2022-08-22T10:05:39.503Z,101367.31
2022-08-22T10:08:28.782Z,101366.06
2022-08-22T10:11:20.423Z,101358.28
2022-08-22T10:14:00.814Z,101365.50
2022-08-22T10:16:46.654Z,101373.34
2022-08-22T10:19:38.149Z,101368.28
2022-08-22T10:22:30.240Z,101371.84
2022-08-22T10:25:45.711Z,101379.53
2022-08-22T10:28:33.532Z,101377.34
2022-08-22T10:31:15.227Z,101374.09
2022-08-22T10:34:13.272Z,101367.34
2022-08-22T10:37:23.862Z,101361.00
2022-08-22T10:40:38.925Z,101367.72
2022-08-22T10:43:37.391Z,101362.47
2022-08-22T10:46:17.201Z,101370.63
2022-08-22T10:48:58.163Z,101376.50
2022-08-22T10:51:44.687Z,101368.13
2022-08-22T10:54:29.350Z,101371.16
2022-08-22T10:57:08.158Z,101362.72
2022-08-22T10:59:45.092Z,101361.03
2022-08-22T11:02:27.509Z,101363.97
2022-08-22T11:05:36.278Z,101361.72
2022-08-22T11:08:34.811Z,101352.94
2022-08-22T11:11:17.574Z,101362.28
2022-08-22T11:14:41.777Z,101363.31
2022-08-22T11:17:54.111Z,101356.00
2022-08-22T11:21:04.526Z,101358.22
2022-08-22T11:24:17.381Z,101357.16
2022-08-22T11:27:39.568Z,101357.94
2022-08-22T11:30:24.017Z,101349.91
2022-08-22T11:32:59.587Z,101348.88
2022-08-22T11:35:42.884Z,101353.22
2022-08-22T11:38:33.045Z,101350.06
2022-08-22T11:41:05.405Z,101350.53
2022-08-22T11:43:44.277Z,101355.13
2022-08-22T11:46:28.160Z,101352.41
2022-08-22T11:49:13.717Z,101358.91
2022-08-22T11:52:09.722Z,101354.44
2022-08-22T11:55:38.434Z,101347.09
2022-08-22T11:58:39.513Z,101343.28
2022-08-22T12:01:38.459Z,101345.81
2022-08-22T12:04:35.869Z,101346.66
2022-08-22T12:07:31.235Z,101347.84
2022-08-22T12:10:22.248Z,101340.13
2022-08-22T12:13:36.774Z,101339.53
2022-08-22T12:16:25.264Z,101336.63
2022-08-22T12:20:05.767Z,101329.94
2022-08-22T12:22:50.040Z,101331.94
2022-08-22T12:25:26.326Z,101317.25
2022-08-22T12:28:23.327Z,101319.09
2022-08-22T12:31:16.283Z,101322.47
2022-08-22T12:34:01.512Z,101320.72
2022-08-22T12:36:53.091Z,101324.94
2022-08-22T12:40:16.759Z,101311.34
2022-08-22T12:42:59.542Z,101310.03
2022-08-22T12:45:44.351Z,101314.13
2022-08-22T12:48:47.710Z,101298.56
2022-08-22T12:51:30.864Z,101306.75
2022-08-22T12:54:36.122Z,101295.78
2022-08-22T12:57:54.201Z,101290.91
2022-08-22T13:00:35.705Z,101278.06
2022-08-22T13:03:43.517Z,101289.94
2022-08-22T13:06:35.251Z,101294.53
2022-08-22T13:09:09.816Z,101291.16
2022-08-22T13:11:41.492Z,101262.47
2022-08-22T13:14:16.750Z,101272.56
2022-08-22T13:16:51.849Z,101289.25
2022-08-22T13:19:32.359Z,101279.88
2022-08-22T13:22:09.781Z,101286.91
2022-08-22T13:24:51.663Z,101281.97
2022-08-22T13:27:27.111Z,101276.06
2022-08-22T13:30:12.336Z,101270.78
2022-08-22T13:32:48.634Z,101267.72
2022-08-22T13:35:27.121Z,101272.56
2022-08-22T13:38:12.337Z,101271.72
2022-08-22T13:40:44.688Z,101270.22
2022-08-22T13:43:23.872Z,101270.56
2022-08-22T13:45:57.990Z,101277.34
2022-08-22T13:49:00.829Z,101262.31
2022-08-22T13:51:40.150Z,101277.38
2022-08-22T13:54:10.793Z,101276.38
2022-08-22T13:57:30.760Z,101278.75
2022-08-22T14:00:13.204Z,101269.06
2022-08-22T14:03:15.039Z,101264.47
2022-08-22T14:05:51.271Z,101264.66
2022-08-22T14:08:25.883Z,101263.63
2022-08-22T14:11:08.314Z,101259.56
2022-08-22T14:14:01.099Z,101262.69
2022-08-22T14:16:37.195Z,101223.84
2022-08-22T14:19:14.428Z,101262.34
2022-08-22T14:21:53.387Z,101270.25
2022-08-22T14:24:45.578Z,101263.22
2022-08-22T14:27:57.602Z,101265.47
2022-08-22T14:30:54.414Z,101268.75
2022-08-22T14:33:35.664Z,101262.44
2022-08-22T14:36:14.292Z,101265.69
2022-08-22T14:39:11.797Z,101274.13
2022-08-22T14:41:55.677Z,101280.28
2022-08-22T14:44:44.027Z,101274.78
2022-08-22T14:48:14.185Z,101265.28
2022-08-22T14:50:43.367Z,101272.44
2022-08-22T14:53:24.930Z,101278.78
2022-08-22T14:56:15.639Z,101273.84
2022-08-22T14:59:08.917Z,101266.13
2022-08-22T15:02:01.424Z,101269.31
2022-08-22T15:04:42.369Z,101265.53
2022-08-22T15:07:10.605Z,101279.31
2022-08-22T15:09:50.553Z,101267.38
2022-08-22T15:12:30.788Z,101268.91
2022-08-22T15:15:02.491Z,101270.97
2022-08-22T15:17:54.767Z,101273.44
2022-08-22T15:20:38.193Z,101272.44
2022-08-22T15:23:23.013Z,101280.38
2022-08-22T15:26:13.430Z,101278.34
2022-08-22T15:28:53.091Z,101271.69
2022-08-22T15:31:21.137Z,101282.78
2022-08-22T15:33:49.750Z,101270.91
2022-08-22T15:36:24.489Z,101260.16
2022-08-22T15:39:18.365Z,101264.00
2022-08-22T15:41:48.426Z,101263.03
2022-08-22T15:44:32.233Z,101261.44
2022-08-22T15:47:39.384Z,101264.91
2022-08-22T15:50:27.208Z,101264.84
2022-08-22T15:53:18.979Z,101263.56
2022-08-22T15:56:11.367Z,101258.44
2022-08-22T15:58:48.833Z,101258.66
2022-08-22T16:01:24.951Z,101255.69
2022-08-22T16:04:06.518Z,101250.97
2022-08-22T16:07:18.693Z,101254.59
2022-08-22T16:09:50.681Z,101251.31
2022-08-22T16:12:47.744Z,101261.56
2022-08-22T16:15:51.534Z,101251.72
2022-08-22T16:18:35.567Z,101253.06
2022-08-22T16:21:23.848Z,101250.69
2022-08-22T16:23:50.843Z,101264.53
2022-08-22T16:26:30.646Z,101251.91
2022-08-22T16:29:17.530Z,101264.09
2022-08-22T16:31:44.753Z,101269.56
2022-08-22T16:34:20.564Z,101262.31
2022-08-22T16:37:08.411Z,101254.66
2022-08-22T16:40:14.539Z,101259.53
2022-08-22T16:42:49.067Z,101267.31
2022-08-22T16:45:24.632Z,101263.19
2022-08-22T16:47:58.620Z,101262.50
2022-08-22T16:50:33.527Z,101248.06
2022-08-22T16:53:05.464Z,101261.44
2022-08-22T16:55:34.300Z,101255.81
2022-08-22T16:58:13.106Z,101261.25
2022-08-22T17:01:07.534Z,101258.69
2022-08-22T17:04:06.135Z,101261.25
2022-08-22T17:07:18.831Z,101254.78
2022-08-22T17:10:01.105Z,101250.00
2022-08-22T17:13:06.485Z,101253.78
2022-08-22T17:16:20.452Z,101256.44
2022-08-22T17:19:39.308Z,101255.31
2022-08-22T17:22:32.785Z,101252.28
2022-08-22T17:25:50.816Z,101251.38
2022-08-22T17:28:33.536Z,101256.72
2022-08-22T17:31:12.985Z,101264.47
2022-08-22T17:34:38.826Z,101265.88
2022-08-22T17:37:31.832Z,101265.91
2022-08-22T17:40:22.569Z,101272.19
2022-08-22T17:43:09.906Z,101269.69
2022-08-22T17:46:30.885Z,101276.38
2022-08-22T17:49:29.858Z,101273.88
2022-08-22T17:52:25.537Z,101274.44
2022-08-22T17:55:18.549Z,101280.16
2022-08-22T17:57:57.453Z,101284.66
2022-08-22T18:00:33.148Z,101289.09
2022-08-22T18:03:36.925Z,101296.41
2022-08-22T18:06:16.272Z,101287.56
2022-08-22T18:09:18.315Z,101295.00
2022-08-22T18:11:52.076Z,101292.38
2022-08-22T18:14:37.618Z,101298.59
2022-08-22T18:17:34.763Z,101303.66
2022-08-22T18:20:08.012Z,101307.75
2022-08-22T18:23:21.825Z,101300.81
2022-08-22T18:26:33.871Z,101289.19
2022-08-22T18:29:18.612Z,101301.88
2022-08-22T18:32:17.409Z,101304.34
2022-08-22T18:35:10.108Z,101300.63
2022-08-22T18:37:37.105Z,101300.03
2022-08-22T18:40:23.250Z,101304.19
2022-08-22T18:43:03.523Z,101309.63
2022-08-22T18:45:48.490Z,101322.25
2022-08-22T18:49:05.422Z,101315.50
2022-08-22T18:51:38.280Z,101319.56
2022-08-22T18:54:05.123Z,101316.53
2022-08-22T18:56:31.601Z,101327.00
2022-08-22T18:59:13.610Z,101329.28
2022-08-22T19:01:56.466Z,101322.84
2022-08-22T19:05:01.428Z,101326.09
2022-08-22T19:08:08.589Z,101323.88
2022-08-22T19:11:08.664Z,101333.31
2022-08-22T19:14:22.417Z,101335.34
2022-08-22T19:17:00.961Z,101335.22
2022-08-22T19:20:08.045Z,101335.44
2022-08-22T19:22:36.868Z,101337.28
2022-08-22T19:25:27.172Z,101344.94
2022-08-22T19:27:56.931Z,101335.38
2022-08-22T19:30:44.189Z,101336.22
2022-08-22T19:33:27.726Z,101337.50
2022-08-22T19:36:11.949Z,101342.28
2022-08-22T19:39:09.129Z,101345.00
2022-08-22T19:41:54.041Z,101344.41
2022-08-22T19:44:20.550Z,101357.47
2022-08-22T19:47:18.868Z,101354.69
2022-08-22T19:50:07.856Z,101354.16
2022-08-22T19:53:31.035Z,101356.13
2022-08-22T19:56:44.870Z,101362.81
2022-08-22T19:59:50.925Z,101355.97
2022-08-22T20:02:37.054Z,101364.63
2022-08-22T20:05:20.603Z,101380.91
2022-08-22T20:08:18.611Z,101372.28
2022-08-22T20:11:13.684Z,101378.09
2022-08-22T20:13:40.744Z,101383.03
2022-08-22T20:16:24.193Z,101375.72
2022-08-22T20:19:05.987Z,101375.84
2022-08-22T20:21:39.298Z,101376.75
2022-08-22T20:24:29.711Z,101371.72
2022-08-22T20:27:13.249Z,101378.03
2022-08-22T20:29:51.442Z,101371.97
2022-08-22T20:32:21.420Z,101384.53
2022-08-22T20:34:54.867Z,101372.28
2022-08-22T20:37:45.530Z,101376.19
2022-08-22T20:40:56.944Z,101379.19
2022-08-22T20:43:31.072Z,101368.59
2022-08-22T20:46:26.205Z,101368.88
2022-08-22T20:48:55.787Z,101376.28
2022-08-22T20:51:30.702Z,101371.94
2022-08-22T20:54:02.072Z,101372.03
2022-08-22T20:56:53.081Z,101381.03
2022-08-22T20:59:27.405Z,101388.78
2022-08-22T21:02:20.205Z,101382.19
2022-08-22T21:04:52.924Z,101382.81
2022-08-22T21:07:33.595Z,101388.53
2022-08-22T21:10:45.384Z,101381.06
2022-08-22T21:13:24.309Z,101390.28
2022-08-22T21:15:58.015Z,101394.88
2022-08-22T21:18:24.596Z,101393.53
2022-08-22T21:20:51.308Z,101397.03
2022-08-22T21:23:19.447Z,101394.22
2022-08-22T21:26:02.319Z,101393.78
2022-08-22T21:28:38.075Z,101396.13
2022-08-22T21:31:16.499Z,101389.59
2022-08-22T21:33:47.001Z,101401.59
2022-08-22T21:36:20.491Z,101400.47
2022-08-22T21:38:57.370Z,101387.34
2022-08-22T21:41:42.103Z,101407.72
2022-08-22T21:44:30.580Z,101377.22
2022-08-22T21:47:19.360Z,101411.47
2022-08-22T21:50:12.516Z,101407.75
2022-08-22T21:52:44.185Z,101399.16
2022-08-22T21:55:29.559Z,101401.19
2022-08-22T21:58:34.903Z,101403.69
2022-08-22T22:01:24.977Z,101409.72
2022-08-22T22:03:52.078Z,101406.34
2022-08-22T22:06:18.927Z,101416.28
2022-08-22T22:08:45.544Z,101416.47
2022-08-22T22:11:15.136Z,101413.81
2022-08-22T22:13:42.676Z,101413.69
2022-08-22T22:16:12.112Z,101409.16
2022-08-22T22:18:40.475Z,101373.69
2022-08-22T22:21:07.683Z,101410.81
2022-08-22T22:23:34.341Z,101408.06
2022-08-22T22:26:05.471Z,101407.88
2022-08-22T22:28:37.988Z,101405.00
2022-08-22T22:31:05.713Z,101406.69
2022-08-22T22:33:40.018Z,101395.47
2022-08-22T22:36:14.852Z,101398.34
2022-08-22T22:38:41.926Z,101404.66
2022-08-22T22:41:08.723Z,101403.50
2022-08-22T22:43:35.501Z,101401.44
2022-08-22T22:46:02.287Z,101402.47
2022-08-22T22:48:29.260Z,101401.72
2022-08-22T22:50:55.896Z,101407.34
2022-08-22T22:53:33.630Z,101402.25
2022-08-22T22:56:09.360Z,101388.97
2022-08-22T22:58:37.327Z,101405.38
2022-08-22T23:01:20.997Z,101416.69
2022-08-22T23:03:52.117Z,101412.28
2022-08-22T23:06:23.050Z,101396.78
2022-08-22T23:08:51.107Z,101418.53
2022-08-22T23:11:30.241Z,101385.66
2022-08-22T23:13:57.372Z,101412.88
2022-08-22T23:16:32.033Z,101406.50
2022-08-22T23:19:09.219Z,101413.19
2022-08-22T23:21:35.905Z,101409.13
2022-08-22T23:24:02.724Z,101416.16
2022-08-22T23:26:29.642Z,101403.94
2022-08-22T23:28:57.249Z,101404.59
2022-08-22T23:31:50.357Z,101420.13
2022-08-22T23:34:24.141Z,101432.03
2022-08-22T23:36:54.675Z,101425.81
2022-08-22T23:39:24.809Z,101426.25
2022-08-22T23:41:52.125Z,101431.94
2022-08-22T23:44:22.680Z,101426.00
2022-08-22T23:46:50.069Z,101430.72
2022-08-22T23:49:17.731Z,101425.97
2022-08-22T23:51:46.404Z,101427.31
2022-08-22T23:54:13.730Z,101420.91
2022-08-22T23:56:47.320Z,101415.19
2022-08-22T23:59:18.636Z,101413.97
